sensor_id;sensor_type;location;lat;lon;timestamp;P1;durP1;ratioP1;P2;durP2;ratioP2
1204;SDS011;592;48.764;9.174;2022-11-15T00:02:20;6.97;;;4.47;;
1204;SDS011;592;48.764;9.174;2022-11-15T00:04:48;9.80;;;4.60;;
1204;SDS011;592;48.764;9.174;2022-11-15T00:07:14;6.80;;;3.97;;
1204;SDS011;592;48.764;9.174;2022-11-15T00:09:41;6.80;;;4.17;;
1204;SDS011;592;48.764;9.174;2022-11-15T00:12:08;9.40;;;4.37;;
1204;SDS011;592;48.764;9.174;2022-11-15T00:14:35;6.90;;;4.27;;
1204;SDS011;592;48.764;9.174;2022-11-15T00:17:01;9.27;;;4.90;;
1204;SDS011;592;48.764;9.174;2022-11-15T00:19:28;10.03;;;4.70;;
1204;SDS011;592;48.764;9.174;2022-11-15T00:21:56;6.50;;;3.80;;
1204;SDS011;592;48.764;9.174;2022-11-15T00:24:23;7.60;;;4.10;;
1204;SDS011;592;48.764;9.174;2022-11-15T00:26:50;7.50;;;4.17;;
1204;SDS011;592;48.764;9.174;2022-11-15T00:29:16;6.23;;;3.60;;
1204;SDS011;592;48.764;9.174;2022-11-15T00:31:43;7.17;;;3.43;;
1204;SDS011;592;48.764;9.174;2022-11-15T00:34:10;9.90;;;3.50;;
1204;SDS011;592;48.764;9.174;2022-11-15T00:36:37;7.20;;;3.83;;
1204;SDS011;592;48.764;9.174;2022-11-15T00:39:05;7.03;;;4.20;;
1204;SDS011;592;48.764;9.174;2022-11-15T00:41:31;8.80;;;5.13;;
1204;SDS011;592;48.764;9.174;2022-11-15T00:43:58;6.87;;;4.03;;
1204;SDS011;592;48.764;9.174;2022-11-15T00:46:25;8.03;;;4.60;;
1204;SDS011;592;48.764;9.174;2022-11-15T00:48:52;6.97;;;4.20;;
1204;SDS011;592;48.764;9.174;2022-11-15T00:51:18;7.90;;;4.17;;
1204;SDS011;592;48.764;9.174;2022-11-15T00:53:45;11.63;;;4.60;;
1204;SDS011;592;48.764;9.174;2022-11-15T00:56:13;6.50;;;3.70;;
1204;SDS011;592;48.764;9.174;2022-11-15T00:58:40;7.60;;;4.20;;
1204;SDS011;592;48.764;9.174;2022-11-15T01:01:07;9.30;;;3.87;;
1204;SDS011;592;48.764;9.174;2022-11-15T01:03:36;6.30;;;3.67;;
1204;SDS011;592;48.764;9.174;2022-11-15T01:06:04;7.33;;;3.87;;
1204;SDS011;592;48.764;9.174;2022-11-15T01:08:31;8.17;;;4.50;;
1204;SDS011;592;48.764;9.174;2022-11-15T01:11:00;6.90;;;4.50;;
1204;SDS011;592;48.764;9.174;2022-11-15T01:13:30;8.10;;;4.13;;
1204;SDS011;592;48.764;9.174;2022-11-15T01:15:58;6.57;;;4.17;;
1204;SDS011;592;48.764;9.174;2022-11-15T01:18:25;7.90;;;4.10;;
1204;SDS011;592;48.764;9.174;2022-11-15T01:20:52;8.20;;;4.87;;
1204;SDS011;592;48.764;9.174;2022-11-15T01:23:18;8.27;;;4.30;;
1204;SDS011;592;48.764;9.174;2022-11-15T01:25:45;14.33;;;4.43;;
1204;SDS011;592;48.764;9.174;2022-11-15T01:28:12;7.60;;;4.30;;
1204;SDS011;592;48.764;9.174;2022-11-15T01:30:40;7.83;;;3.90;;
1204;SDS011;592;48.764;9.174;2022-11-15T01:33:07;7.63;;;4.57;;
1204;SDS011;592;48.764;9.174;2022-11-15T01:35:33;8.33;;;4.30;;
1204;SDS011;592;48.764;9.174;2022-11-15T01:38:04;6.40;;;3.80;;
1204;SDS011;592;48.764;9.174;2022-11-15T01:40:31;9.00;;;3.53;;
1204;SDS011;592;48.764;9.174;2022-11-15T01:42:58;5.87;;;4.00;;
1204;SDS011;592;48.764;9.174;2022-11-15T01:45:24;7.80;;;3.60;;
1204;SDS011;592;48.764;9.174;2022-11-15T01:47:53;7.73;;;3.43;;
1204;SDS011;592;48.764;9.174;2022-11-15T01:50:22;7.13;;;3.70;;
1204;SDS011;592;48.764;9.174;2022-11-15T01:52:53;6.77;;;3.77;;
1204;SDS011;592;48.764;9.174;2022-11-15T01:55:20;6.40;;;2.93;;
1204;SDS011;592;48.764;9.174;2022-11-15T01:57:49;6.10;;;3.57;;
1204;SDS011;592;48.764;9.174;2022-11-15T02:00:19;6.30;;;3.40;;
1204;SDS011;592;48.764;9.174;2022-11-15T02:02:46;5.43;;;3.37;;
1204;SDS011;592;48.764;9.174;2022-11-15T02:05:14;11.10;;;3.67;;
1204;SDS011;592;48.764;9.174;2022-11-15T02:07:41;5.43;;;3.20;;
1204;SDS011;592;48.764;9.174;2022-11-15T02:10:09;7.60;;;3.37;;
1204;SDS011;592;48.764;9.174;2022-11-15T02:12:38;5.30;;;3.20;;
1204;SDS011;592;48.764;9.174;2022-11-15T02:15:05;7.67;;;3.57;;
1204;SDS011;592;48.764;9.174;2022-11-15T02:17:44;5.57;;;3.20;;
1204;SDS011;592;48.764;9.174;2022-11-15T02:20:33;6.60;;;3.17;;
1204;SDS011;592;48.764;9.174;2022-11-15T02:23:18;9.67;;;3.30;;
1204;SDS011;592;48.764;9.174;2022-11-15T02:26:19;6.60;;;3.10;;
1204;SDS011;592;48.764;9.174;2022-11-15T02:29:17;6.50;;;3.70;;
1204;SDS011;592;48.764;9.174;2022-11-15T02:31:55;5.20;;;3.17;;
1204;SDS011;592;48.764;9.174;2022-11-15T02:34:32;6.20;;;3.13;;
1204;SDS011;592;48.764;9.174;2022-11-15T02:37:10;6.47;;;3.13;;
1204;SDS011;592;48.764;9.174;2022-11-15T02:39:43;5.70;;;3.40;;
1204;SDS011;592;48.764;9.174;2022-11-15T02:42:18;4.80;;;2.73;;
1204;SDS011;592;48.764;9.174;2022-11-15T02:45:07;6.03;;;3.67;;
1204;SDS011;592;48.764;9.174;2022-11-15T02:47:41;7.20;;;3.40;;
1204;SDS011;592;48.764;9.174;2022-11-15T02:50:12;10.63;;;3.10;;
1204;SDS011;592;48.764;9.174;2022-11-15T02:52:44;5.30;;;2.83;;
1204;SDS011;592;48.764;9.174;2022-11-15T02:55:28;4.77;;;3.17;;
1204;SDS011;592;48.764;9.174;2022-11-15T02:58:01;7.47;;;3.20;;
1204;SDS011;592;48.764;9.174;2022-11-15T03:00:40;6.90;;;3.27;;
1204;SDS011;592;48.764;9.174;2022-11-15T03:03:20;5.40;;;3.03;;
1204;SDS011;592;48.764;9.174;2022-11-15T03:06:17;7.03;;;3.77;;
1204;SDS011;592;48.764;9.174;2022-11-15T03:08:54;7.50;;;3.37;;
1204;SDS011;592;48.764;9.174;2022-11-15T03:11:28;6.70;;;3.00;;
1204;SDS011;592;48.764;9.174;2022-11-15T03:13:58;5.43;;;3.10;;
1204;SDS011;592;48.764;9.174;2022-11-15T03:16:34;7.77;;;3.50;;
1204;SDS011;592;48.764;9.174;2022-11-15T03:19:06;9.00;;;3.20;;
1204;SDS011;592;48.764;9.174;2022-11-15T03:21:38;5.50;;;3.63;;
1204;SDS011;592;48.764;9.174;2022-11-15T03:24:06;5.57;;;3.20;;
1204;SDS011;592;48.764;9.174;2022-11-15T03:26:34;6.47;;;3.30;;
1204;SDS011;592;48.764;9.174;2022-11-15T03:29:04;6.63;;;3.10;;
1204;SDS011;592;48.764;9.174;2022-11-15T03:31:36;6.87;;;3.20;;
1204;SDS011;592;48.764;9.174;2022-11-15T03:34:15;6.03;;;3.30;;
1204;SDS011;592;48.764;9.174;2022-11-15T03:36:48;6.90;;;3.00;;
1204;SDS011;592;48.764;9.174;2022-11-15T03:39:17;5.97;;;3.73;;
1204;SDS011;592;48.764;9.174;2022-11-15T03:41:46;7.17;;;3.50;;
1204;SDS011;592;48.764;9.174;2022-11-15T03:44:16;6.30;;;3.77;;
1204;SDS011;592;48.764;9.174;2022-11-15T03:46:55;5.30;;;2.70;;
1204;SDS011;592;48.764;9.174;2022-11-15T03:49:29;6.60;;;3.70;;
1204;SDS011;592;48.764;9.174;2022-11-15T03:51:59;5.37;;;3.00;;
1204;SDS011;592;48.764;9.174;2022-11-15T03:54:27;9.10;;;3.73;;
1204;SDS011;592;48.764;9.174;2022-11-15T03:56:54;5.43;;;3.30;;
1204;SDS011;592;48.764;9.174;2022-11-15T03:59:21;7.77;;;3.70;;
1204;SDS011;592;48.764;9.174;2022-11-15T04:01:48;7.60;;;3.03;;
1204;SDS011;592;48.764;9.174;2022-11-15T04:04:15;7.00;;;3.20;;
1204;SDS011;592;48.764;9.174;2022-11-15T04:06:43;10.03;;;3.47;;
1204;SDS011;592;48.764;9.174;2022-11-15T04:09:09;6.20;;;3.23;;
1204;SDS011;592;48.764;9.174;2022-11-15T04:11:36;4.90;;;2.83;;
1204;SDS011;592;48.764;9.174;2022-11-15T04:14:03;6.73;;;3.03;;
1204;SDS011;592;48.764;9.174;2022-11-15T04:16:30;6.30;;;3.30;;
1204;SDS011;592;48.764;9.174;2022-11-15T04:18:56;7.83;;;3.33;;
1204;SDS011;592;48.764;9.174;2022-11-15T04:21:40;7.27;;;3.47;;
1204;SDS011;592;48.764;9.174;2022-11-15T04:24:26;4.60;;;3.00;;
1204;SDS011;592;48.764;9.174;2022-11-15T04:26:52;6.77;;;3.40;;
1204;SDS011;592;48.764;9.174;2022-11-15T04:29:19;8.37;;;3.23;;
1204;SDS011;592;48.764;9.174;2022-11-15T04:32:01;5.37;;;2.67;;
1204;SDS011;592;48.764;9.174;2022-11-15T04:34:28;7.03;;;2.97;;
1204;SDS011;592;48.764;9.174;2022-11-15T04:36:56;5.73;;;3.30;;
1204;SDS011;592;48.764;9.174;2022-11-15T04:39:38;5.93;;;2.90;;
1204;SDS011;592;48.764;9.174;2022-11-15T04:42:05;5.30;;;3.27;;
1204;SDS011;592;48.764;9.174;2022-11-15T04:44:33;7.07;;;3.33;;
1204;SDS011;592;48.764;9.174;2022-11-15T04:47:00;11.20;;;3.50;;
1204;SDS011;592;48.764;9.174;2022-11-15T04:49:26;7.00;;;3.60;;
1204;SDS011;592;48.764;9.174;2022-11-15T04:51:53;6.33;;;3.50;;
1204;SDS011;592;48.764;9.174;2022-11-15T04:54:21;6.73;;;3.50;;
1204;SDS011;592;48.764;9.174;2022-11-15T04:56:48;5.20;;;2.90;;
1204;SDS011;592;48.764;9.174;2022-11-15T04:59:15;10.03;;;3.30;;
1204;SDS011;592;48.764;9.174;2022-11-15T05:01:41;7.20;;;3.30;;
1204;SDS011;592;48.764;9.174;2022-11-15T05:04:08;6.97;;;3.00;;
1204;SDS011;592;48.764;9.174;2022-11-15T05:06:47;7.03;;;3.13;;
1204;SDS011;592;48.764;9.174;2022-11-15T05:09:15;7.07;;;3.37;;
1204;SDS011;592;48.764;9.174;2022-11-15T05:11:43;5.33;;;3.50;;
1204;SDS011;592;48.764;9.174;2022-11-15T05:14:10;15.60;;;10.77;;
1204;SDS011;592;48.764;9.174;2022-11-15T05:16:37;9.30;;;5.73;;
1204;SDS011;592;48.764;9.174;2022-11-15T05:19:05;8.03;;;3.93;;
1204;SDS011;592;48.764;9.174;2022-11-15T05:21:32;6.13;;;3.53;;
1204;SDS011;592;48.764;9.174;2022-11-15T05:24:00;5.70;;;3.20;;
1204;SDS011;592;48.764;9.174;2022-11-15T05:26:27;7.27;;;3.60;;
1204;SDS011;592;48.764;9.174;2022-11-15T05:28:55;5.73;;;3.20;;
1204;SDS011;592;48.764;9.174;2022-11-15T05:31:23;6.30;;;3.50;;
1204;SDS011;592;48.764;9.174;2022-11-15T05:33:51;5.63;;;3.53;;
1204;SDS011;592;48.764;9.174;2022-11-15T05:36:21;6.77;;;3.30;;
1204;SDS011;592;48.764;9.174;2022-11-15T05:38:54;6.83;;;3.20;;
1204;SDS011;592;48.764;9.174;2022-11-15T05:41:22;5.27;;;3.07;;
1204;SDS011;592;48.764;9.174;2022-11-15T05:43:54;5.50;;;2.93;;
1204;SDS011;592;48.764;9.174;2022-11-15T05:46:21;6.00;;;3.30;;
1204;SDS011;592;48.764;9.174;2022-11-15T05:48:48;5.03;;;3.20;;
1204;SDS011;592;48.764;9.174;2022-11-15T05:51:16;8.60;;;3.80;;
1204;SDS011;592;48.764;9.174;2022-11-15T05:53:44;5.93;;;3.50;;
1204;SDS011;592;48.764;9.174;2022-11-15T05:56:11;6.43;;;3.37;;
1204;SDS011;592;48.764;9.174;2022-11-15T05:58:39;6.83;;;3.30;;
1204;SDS011;592;48.764;9.174;2022-11-15T06:01:08;4.13;;;2.60;;
1204;SDS011;592;48.764;9.174;2022-11-15T06:03:35;5.77;;;3.47;;
1204;SDS011;592;48.764;9.174;2022-11-15T06:06:02;6.87;;;3.50;;
1204;SDS011;592;48.764;9.174;2022-11-15T06:08:29;11.50;;;5.80;;
1204;SDS011;592;48.764;9.174;2022-11-15T06:10:55;7.80;;;4.40;;
1204;SDS011;592;48.764;9.174;2022-11-15T06:13:22;6.80;;;3.97;;
1204;SDS011;592;48.764;9.174;2022-11-15T06:15:49;6.90;;;3.67;;
1204;SDS011;592;48.764;9.174;2022-11-15T06:18:17;6.17;;;3.70;;
1204;SDS011;592;48.764;9.174;2022-11-15T06:20:44;7.80;;;3.60;;
1204;SDS011;592;48.764;9.174;2022-11-15T06:23:10;5.23;;;3.60;;
1204;SDS011;592;48.764;9.174;2022-11-15T06:25:38;5.93;;;3.77;;
1204;SDS011;592;48.764;9.174;2022-11-15T06:28:05;6.40;;;3.83;;
1204;SDS011;592;48.764;9.174;2022-11-15T06:30:31;6.77;;;3.47;;
1204;SDS011;592;48.764;9.174;2022-11-15T06:32:59;6.30;;;3.80;;
1204;SDS011;592;48.764;9.174;2022-11-15T06:35:29;6.23;;;3.77;;
1204;SDS011;592;48.764;9.174;2022-11-15T06:38:01;7.60;;;3.50;;
1204;SDS011;592;48.764;9.174;2022-11-15T06:40:28;6.07;;;3.33;;
1204;SDS011;592;48.764;9.174;2022-11-15T06:42:57;7.77;;;3.90;;
1204;SDS011;592;48.764;9.174;2022-11-15T06:45:25;6.23;;;3.37;;
1204;SDS011;592;48.764;9.174;2022-11-15T06:47:51;7.83;;;3.53;;
1204;SDS011;592;48.764;9.174;2022-11-15T06:50:18;8.00;;;3.70;;
1204;SDS011;592;48.764;9.174;2022-11-15T06:52:47;10.70;;;4.57;;
1204;SDS011;592;48.764;9.174;2022-11-15T06:55:13;6.90;;;3.40;;
1204;SDS011;592;48.764;9.174;2022-11-15T06:57:46;9.80;;;4.70;;
1204;SDS011;592;48.764;9.174;2022-11-15T07:00:14;8.23;;;4.03;;
1204;SDS011;592;48.764;9.174;2022-11-15T07:02:42;6.70;;;3.80;;
1204;SDS011;592;48.764;9.174;2022-11-15T07:05:14;8.30;;;4.70;;
1204;SDS011;592;48.764;9.174;2022-11-15T07:07:41;9.70;;;4.43;;
1204;SDS011;592;48.764;9.174;2022-11-15T07:10:10;8.03;;;4.50;;
1204;SDS011;592;48.764;9.174;2022-11-15T07:12:36;9.73;;;5.37;;
1204;SDS011;592;48.764;9.174;2022-11-15T07:15:03;8.00;;;4.90;;
1204;SDS011;592;48.764;9.174;2022-11-15T07:17:31;12.97;;;4.67;;
1204;SDS011;592;48.764;9.174;2022-11-15T07:19:58;7.40;;;4.43;;
1204;SDS011;592;48.764;9.174;2022-11-15T07:22:25;12.53;;;4.60;;
1204;SDS011;592;48.764;9.174;2022-11-15T07:24:51;8.90;;;4.60;;
1204;SDS011;592;48.764;9.174;2022-11-15T07:27:20;8.27;;;5.00;;
1204;SDS011;592;48.764;9.174;2022-11-15T07:29:46;6.40;;;4.43;;
1204;SDS011;592;48.764;9.174;2022-11-15T07:32:13;10.87;;;5.13;;
1204;SDS011;592;48.764;9.174;2022-11-15T07:34:40;16.70;;;5.90;;
1204;SDS011;592;48.764;9.174;2022-11-15T07:37:07;13.50;;;5.47;;
1204;SDS011;592;48.764;9.174;2022-11-15T07:39:33;10.80;;;5.77;;
1204;SDS011;592;48.764;9.174;2022-11-15T07:42:00;12.33;;;6.27;;
1204;SDS011;592;48.764;9.174;2022-11-15T07:44:46;9.20;;;4.90;;
1204;SDS011;592;48.764;9.174;2022-11-15T07:47:13;12.57;;;6.17;;
1204;SDS011;592;48.764;9.174;2022-11-15T07:49:39;12.03;;;7.60;;
1204;SDS011;592;48.764;9.174;2022-11-15T07:52:06;35.73;;;18.57;;
1204;SDS011;592;48.764;9.174;2022-11-15T07:54:33;12.23;;;4.93;;
1204;SDS011;592;48.764;9.174;2022-11-15T07:57:00;7.77;;;4.60;;
1204;SDS011;592;48.764;9.174;2022-11-15T07:59:26;8.60;;;5.13;;
1204;SDS011;592;48.764;9.174;2022-11-15T08:01:54;9.13;;;5.03;;
1204;SDS011;592;48.764;9.174;2022-11-15T08:04:21;11.90;;;5.77;;
1204;SDS011;592;48.764;9.174;2022-11-15T08:06:48;19.80;;;6.73;;
1204;SDS011;592;48.764;9.174;2022-11-15T08:09:15;16.87;;;5.57;;
1204;SDS011;592;48.764;9.174;2022-11-15T08:11:41;10.13;;;5.07;;
1204;SDS011;592;48.764;9.174;2022-11-15T08:14:08;13.70;;;6.50;;
1204;SDS011;592;48.764;9.174;2022-11-15T08:16:35;8.97;;;5.33;;
1204;SDS011;592;48.764;9.174;2022-11-15T08:19:03;13.43;;;5.83;;
1204;SDS011;592;48.764;9.174;2022-11-15T08:21:30;12.03;;;5.40;;
1204;SDS011;592;48.764;9.174;2022-11-15T08:23:57;8.30;;;4.60;;
1204;SDS011;592;48.764;9.174;2022-11-15T08:26:23;10.83;;;5.63;;
1204;SDS011;592;48.764;9.174;2022-11-15T08:28:54;26.53;;;5.90;;
1204;SDS011;592;48.764;9.174;2022-11-15T08:31:20;17.13;;;6.10;;
1204;SDS011;592;48.764;9.174;2022-11-15T08:33:47;187.90;;;23.57;;
1204;SDS011;592;48.764;9.174;2022-11-15T08:36:16;216.30;;;24.93;;
1204;SDS011;592;48.764;9.174;2022-11-15T08:38:43;46.37;;;10.40;;
1204;SDS011;592;48.764;9.174;2022-11-15T08:41:11;25.07;;;6.57;;
1204;SDS011;592;48.764;9.174;2022-11-15T08:43:42;29.57;;;7.73;;
1204;SDS011;592;48.764;9.174;2022-11-15T08:46:10;12.30;;;3.60;;
1204;SDS011;592;48.764;9.174;2022-11-15T08:48:39;14.50;;;4.10;;
1204;SDS011;592;48.764;9.174;2022-11-15T08:51:05;24.40;;;7.27;;
1204;SDS011;592;48.764;9.174;2022-11-15T08:53:34;13.10;;;8.10;;
1204;SDS011;592;48.764;9.174;2022-11-15T08:56:01;15.73;;;4.50;;
1204;SDS011;592;48.764;9.174;2022-11-15T08:58:28;26.73;;;5.07;;
1204;SDS011;592;48.764;9.174;2022-11-15T09:00:55;10.13;;;4.60;;
1204;SDS011;592;48.764;9.174;2022-11-15T09:03:21;9.03;;;4.43;;
1204;SDS011;592;48.764;9.174;2022-11-15T09:05:48;11.90;;;6.00;;
1204;SDS011;592;48.764;9.174;2022-11-15T09:08:19;10.50;;;5.97;;
1204;SDS011;592;48.764;9.174;2022-11-15T09:10:47;12.23;;;6.10;;
1204;SDS011;592;48.764;9.174;2022-11-15T09:13:14;37.80;;;7.40;;
1204;SDS011;592;48.764;9.174;2022-11-15T09:15:41;11.07;;;4.60;;
1204;SDS011;592;48.764;9.174;2022-11-15T09:18:08;14.87;;;5.90;;
1204;SDS011;592;48.764;9.174;2022-11-15T09:20:34;9.50;;;5.43;;
1204;SDS011;592;48.764;9.174;2022-11-15T09:23:01;9.37;;;5.30;;
1204;SDS011;592;48.764;9.174;2022-11-15T09:25:29;11.80;;;5.37;;
1204;SDS011;592;48.764;9.174;2022-11-15T09:27:58;9.60;;;4.27;;
1204;SDS011;592;48.764;9.174;2022-11-15T09:30:25;8.67;;;4.33;;
1204;SDS011;592;48.764;9.174;2022-11-15T09:32:52;7.93;;;4.13;;
1204;SDS011;592;48.764;9.174;2022-11-15T09:35:19;8.83;;;4.40;;
1204;SDS011;592;48.764;9.174;2022-11-15T09:37:45;8.67;;;4.50;;
1204;SDS011;592;48.764;9.174;2022-11-15T09:40:13;10.20;;;4.33;;
1204;SDS011;592;48.764;9.174;2022-11-15T09:45:46;6.10;;;3.70;;
1204;SDS011;592;48.764;9.174;2022-11-15T09:48:24;7.90;;;4.13;;
1204;SDS011;592;48.764;9.174;2022-11-15T09:51:12;8.73;;;5.20;;
1204;SDS011;592;48.764;9.174;2022-11-15T09:53:47;8.77;;;4.00;;
1204;SDS011;592;48.764;9.174;2022-11-15T09:56:19;6.23;;;3.53;;
1204;SDS011;592;48.764;9.174;2022-11-15T09:58:50;6.67;;;3.50;;
1204;SDS011;592;48.764;9.174;2022-11-15T10:01:30;12.50;;;3.73;;
1204;SDS011;592;48.764;9.174;2022-11-15T10:04:05;6.80;;;3.63;;
1204;SDS011;592;48.764;9.174;2022-11-15T10:06:32;6.70;;;3.57;;
1204;SDS011;592;48.764;9.174;2022-11-15T10:09:05;5.57;;;3.23;;
1204;SDS011;592;48.764;9.174;2022-11-15T10:11:39;5.03;;;2.80;;
1204;SDS011;592;48.764;9.174;2022-11-15T10:14:10;5.30;;;3.40;;
1204;SDS011;592;48.764;9.174;2022-11-15T10:16:57;7.73;;;3.30;;
1204;SDS011;592;48.764;9.174;2022-11-15T10:19:38;30.50;;;5.00;;
1204;SDS011;592;48.764;9.174;2022-11-15T10:22:23;6.50;;;3.33;;
1204;SDS011;592;48.764;9.174;2022-11-15T10:24:58;11.47;;;4.27;;
1204;SDS011;592;48.764;9.174;2022-11-15T10:27:36;8.47;;;3.10;;
1204;SDS011;592;48.764;9.174;2022-11-15T10:30:06;8.83;;;3.37;;
1204;SDS011;592;48.764;9.174;2022-11-15T10:32:39;9.30;;;4.00;;
1204;SDS011;592;48.764;9.174;2022-11-15T10:37:51;8.90;;;3.60;;
1204;SDS011;592;48.764;9.174;2022-11-15T10:40:30;11.83;;;3.57;;
1204;SDS011;592;48.764;9.174;2022-11-15T10:43:03;7.80;;;3.27;;
1204;SDS011;592;48.764;9.174;2022-11-15T10:45:40;11.60;;;3.53;;
1204;SDS011;592;48.764;9.174;2022-11-15T10:48:20;11.90;;;3.40;;
1204;SDS011;592;48.764;9.174;2022-11-15T10:50:48;8.63;;;3.70;;
1204;SDS011;592;48.764;9.174;2022-11-15T10:53:19;8.43;;;3.77;;
1204;SDS011;592;48.764;9.174;2022-11-15T10:55:56;6.37;;;3.30;;
1204;SDS011;592;48.764;9.174;2022-11-15T10:58:30;9.57;;;3.10;;
1204;SDS011;592;48.764;9.174;2022-11-15T11:01:09;11.70;;;3.43;;
1204;SDS011;592;48.764;9.174;2022-11-15T11:03:39;6.70;;;2.67;;
1204;SDS011;592;48.764;9.174;2022-11-15T11:06:08;8.10;;;2.83;;
1204;SDS011;592;48.764;9.174;2022-11-15T11:08:37;6.17;;;3.03;;
1204;SDS011;592;48.764;9.174;2022-11-15T11:11:04;11.07;;;3.77;;
1204;SDS011;592;48.764;9.174;2022-11-15T11:13:32;6.17;;;2.90;;
1204;SDS011;592;48.764;9.174;2022-11-15T11:16:19;5.87;;;2.90;;
1204;SDS011;592;48.764;9.174;2022-11-15T11:19:04;8.03;;;3.07;;
1204;SDS011;592;48.764;9.174;2022-11-15T11:21:42;8.23;;;2.77;;
1204;SDS011;592;48.764;9.174;2022-11-15T11:24:17;7.50;;;3.53;;
1204;SDS011;592;48.764;9.174;2022-11-15T11:26:54;8.93;;;3.87;;
1204;SDS011;592;48.764;9.174;2022-11-15T11:29:36;8.75;;;3.33;;
1204;SDS011;592;48.764;9.174;2022-11-15T11:35:09;8.67;;;3.70;;
1204;SDS011;592;48.764;9.174;2022-11-15T11:37:42;9.20;;;3.80;;
1204;SDS011;592;48.764;9.174;2022-11-15T11:40:16;9.53;;;4.13;;
1204;SDS011;592;48.764;9.174;2022-11-15T11:42:54;8.80;;;4.27;;
1204;SDS011;592;48.764;9.174;2022-11-15T11:45:31;8.10;;;3.80;;
1204;SDS011;592;48.764;9.174;2022-11-15T11:48:20;8.57;;;3.63;;
1204;SDS011;592;48.764;9.174;2022-11-15T11:51:03;8.73;;;4.07;;
1204;SDS011;592;48.764;9.174;2022-11-15T11:53:37;14.63;;;4.30;;
1204;SDS011;592;48.764;9.174;2022-11-15T11:56:14;7.40;;;3.80;;
1204;SDS011;592;48.764;9.174;2022-11-15T11:58:47;6.77;;;3.70;;
1204;SDS011;592;48.764;9.174;2022-11-15T12:01:17;11.07;;;4.20;;
1204;SDS011;592;48.764;9.174;2022-11-15T12:03:52;9.23;;;4.50;;
1204;SDS011;592;48.764;9.174;2022-11-15T12:06:26;16.17;;;5.43;;
1204;SDS011;592;48.764;9.174;2022-11-15T12:08:58;12.43;;;5.60;;
1204;SDS011;592;48.764;9.174;2022-11-15T12:11:29;9.60;;;4.53;;
1204;SDS011;592;48.764;9.174;2022-11-15T12:14:03;9.30;;;4.20;;
1204;SDS011;592;48.764;9.174;2022-11-15T12:16:49;9.60;;;4.10;;
1204;SDS011;592;48.764;9.174;2022-11-15T12:19:17;13.07;;;4.40;;
1204;SDS011;592;48.764;9.174;2022-11-15T12:21:45;10.90;;;4.13;;
1204;SDS011;592;48.764;9.174;2022-11-15T12:24:17;12.30;;;4.27;;
1204;SDS011;592;48.764;9.174;2022-11-15T12:26:48;7.57;;;4.03;;
1204;SDS011;592;48.764;9.174;2022-11-15T12:29:20;9.00;;;4.33;;
1204;SDS011;592;48.764;9.174;2022-11-15T12:31:52;8.13;;;3.80;;
1204;SDS011;592;48.764;9.174;2022-11-15T12:40:31;7.40;;;4.40;;
1204;SDS011;592;48.764;9.174;2022-11-15T12:46:01;7.40;;;4.13;;
1204;SDS011;592;48.764;9.174;2022-11-15T13:03:18;6.67;;;4.80;;
1204;SDS011;592;48.764;9.174;2022-11-15T13:05:53;9.20;;;4.90;;
1204;SDS011;592;48.764;9.174;2022-11-15T13:14:41;10.70;;;4.80;;
1204;SDS011;592;48.764;9.174;2022-11-15T13:20:11;9.43;;;4.23;;
1204;SDS011;592;48.764;9.174;2022-11-15T13:22:48;9.80;;;5.13;;
1204;SDS011;592;48.764;9.174;2022-11-15T13:25:16;9.20;;;4.63;;
1204;SDS011;592;48.764;9.174;2022-11-15T13:27:49;7.43;;;4.30;;
1204;SDS011;592;48.764;9.174;2022-11-15T13:30:19;8.37;;;3.97;;
1204;SDS011;592;48.764;9.174;2022-11-15T13:32:47;8.90;;;4.40;;
1204;SDS011;592;48.764;9.174;2022-11-15T13:35:18;6.67;;;4.07;;
1204;SDS011;592;48.764;9.174;2022-11-15T13:37:47;9.43;;;4.00;;
1204;SDS011;592;48.764;9.174;2022-11-15T13:40:17;11.30;;;5.30;;
1204;SDS011;592;48.764;9.174;2022-11-15T13:42:49;8.60;;;4.30;;
1204;SDS011;592;48.764;9.174;2022-11-15T13:45:16;7.67;;;4.00;;
1204;SDS011;592;48.764;9.174;2022-11-15T13:47:44;7.03;;;4.13;;
1204;SDS011;592;48.764;9.174;2022-11-15T13:50:16;9.30;;;4.13;;
1204;SDS011;592;48.764;9.174;2022-11-15T13:52:44;19.63;;;5.80;;
1204;SDS011;592;48.764;9.174;2022-11-15T13:55:15;13.20;;;5.47;;
1204;SDS011;592;48.764;9.174;2022-11-15T13:57:45;16.00;;;5.13;;
1204;SDS011;592;48.764;9.174;2022-11-15T14:00:25;8.17;;;4.17;;
1204;SDS011;592;48.764;9.174;2022-11-15T14:03:04;8.53;;;3.77;;
1204;SDS011;592;48.764;9.174;2022-11-15T14:05:34;6.17;;;3.60;;
1204;SDS011;592;48.764;9.174;2022-11-15T14:08:01;6.20;;;3.97;;
1204;SDS011;592;48.764;9.174;2022-11-15T14:10:38;6.10;;;4.10;;
1204;SDS011;592;48.764;9.174;2022-11-15T14:13:10;12.30;;;4.90;;
1204;SDS011;592;48.764;9.174;2022-11-15T14:15:54;8.13;;;4.40;;
1204;SDS011;592;48.764;9.174;2022-11-15T14:18:40;8.90;;;4.63;;
1204;SDS011;592;48.764;9.174;2022-11-15T14:21:09;9.27;;;5.43;;
1204;SDS011;592;48.764;9.174;2022-11-15T14:23:36;8.30;;;4.60;;
1204;SDS011;592;48.764;9.174;2022-11-15T14:26:03;9.47;;;5.77;;
1204;SDS011;592;48.764;9.174;2022-11-15T14:28:30;11.40;;;5.70;;
1204;SDS011;592;48.764;9.174;2022-11-15T14:31:04;11.43;;;5.77;;
1204;SDS011;592;48.764;9.174;2022-11-15T14:33:38;8.90;;;5.53;;
1204;SDS011;592;48.764;9.174;2022-11-15T14:36:06;11.73;;;5.80;;
1204;SDS011;592;48.764;9.174;2022-11-15T14:38:37;9.87;;;5.10;;
1204;SDS011;592;48.764;9.174;2022-11-15T14:41:04;8.93;;;5.33;;
1204;SDS011;592;48.764;9.174;2022-11-15T14:43:31;8.80;;;4.90;;
1204;SDS011;592;48.764;9.174;2022-11-15T14:45:58;9.07;;;5.70;;
1204;SDS011;592;48.764;9.174;2022-11-15T14:48:26;11.10;;;6.63;;
1204;SDS011;592;48.764;9.174;2022-11-15T14:50:53;10.23;;;5.33;;
1204;SDS011;592;48.764;9.174;2022-11-15T14:53:20;9.20;;;5.17;;
1204;SDS011;592;48.764;9.174;2022-11-15T14:55:47;9.20;;;5.07;;
1204;SDS011;592;48.764;9.174;2022-11-15T14:58:14;7.50;;;5.10;;
1204;SDS011;592;48.764;9.174;2022-11-15T15:00:41;8.73;;;4.67;;
1204;SDS011;592;48.764;9.174;2022-11-15T15:03:08;7.50;;;4.03;;
1204;SDS011;592;48.764;9.174;2022-11-15T15:05:37;20.47;;;5.43;;
1204;SDS011;592;48.764;9.174;2022-11-15T15:08:05;7.20;;;3.90;;
1204;SDS011;592;48.764;9.174;2022-11-15T15:10:33;7.17;;;4.20;;
1204;SDS011;592;48.764;9.174;2022-11-15T15:13:01;8.60;;;4.57;;
1204;SDS011;592;48.764;9.174;2022-11-15T15:15:31;6.40;;;3.87;;
1204;SDS011;592;48.764;9.174;2022-11-15T15:17:59;8.50;;;4.63;;
1204;SDS011;592;48.764;9.174;2022-11-15T15:20:25;8.70;;;4.10;;
1204;SDS011;592;48.764;9.174;2022-11-15T15:22:55;11.50;;;5.00;;
1204;SDS011;592;48.764;9.174;2022-11-15T15:25:22;9.13;;;4.83;;
1204;SDS011;592;48.764;9.174;2022-11-15T15:27:52;9.10;;;4.20;;
1204;SDS011;592;48.764;9.174;2022-11-15T15:30:19;12.33;;;6.60;;
1204;SDS011;592;48.764;9.174;2022-11-15T15:32:46;6.53;;;4.23;;
1204;SDS011;592;48.764;9.174;2022-11-15T15:35:13;9.80;;;5.40;;
1204;SDS011;592;48.764;9.174;2022-11-15T15:37:41;8.67;;;5.23;;
1204;SDS011;592;48.764;9.174;2022-11-15T15:40:12;10.00;;;4.77;;
1204;SDS011;592;48.764;9.174;2022-11-15T15:42:40;10.57;;;4.83;;
1204;SDS011;592;48.764;9.174;2022-11-15T15:45:07;9.33;;;4.60;;
1204;SDS011;592;48.764;9.174;2022-11-15T15:47:35;11.43;;;6.00;;
1204;SDS011;592;48.764;9.174;2022-11-15T15:50:02;8.70;;;5.73;;
1204;SDS011;592;48.764;9.174;2022-11-15T15:52:30;9.43;;;5.50;;
1204;SDS011;592;48.764;9.174;2022-11-15T15:54:56;7.97;;;5.20;;
1204;SDS011;592;48.764;9.174;2022-11-15T15:57:24;13.80;;;6.10;;
1204;SDS011;592;48.764;9.174;2022-11-15T15:59:51;9.53;;;5.30;;
1204;SDS011;592;48.764;9.174;2022-11-15T16:02:18;12.20;;;6.20;;
1204;SDS011;592;48.764;9.174;2022-11-15T16:04:45;8.50;;;5.27;;
1204;SDS011;592;48.764;9.174;2022-11-15T16:07:14;8.20;;;5.33;;
1204;SDS011;592;48.764;9.174;2022-11-15T16:09:43;8.67;;;5.13;;
1204;SDS011;592;48.764;9.174;2022-11-15T16:12:29;8.23;;;4.73;;
1204;SDS011;592;48.764;9.174;2022-11-15T16:15:00;10.13;;;5.37;;
1204;SDS011;592;48.764;9.174;2022-11-15T16:17:28;9.33;;;5.90;;
1204;SDS011;592;48.764;9.174;2022-11-15T16:19:58;9.03;;;5.20;;
1204;SDS011;592;48.764;9.174;2022-11-15T16:22:24;9.60;;;5.93;;
1204;SDS011;592;48.764;9.174;2022-11-15T16:24:51;9.10;;;6.03;;
1204;SDS011;592;48.764;9.174;2022-11-15T16:27:19;18.23;;;7.50;;
1204;SDS011;592;48.764;9.174;2022-11-15T16:29:49;10.37;;;6.47;;